createdAt,value
2018-07-26T00:00:11.265Z,25.60
2018-07-26T00:02:39.705Z,25.60
2018-07-26T00:05:08.049Z,25.70
2018-07-26T00:07:36.717Z,25.60
2018-07-26T00:10:06.433Z,25.80
2018-07-26T00:12:34.841Z,25.50
2018-07-26T00:15:03.370Z,25.40
2018-07-26T00:17:31.757Z,25.30
2018-07-26T00:20:00.115Z,25.30
2018-07-26T00:22:28.425Z,25.20
2018-07-26T00:24:56.756Z,25.20
2018-07-26T00:27:25.385Z,25.10
2018-07-26T00:33:19.179Z,25.00
2018-07-26T00:35:47.498Z,25.00
2018-07-26T00:38:15.802Z,25.10
2018-07-26T00:40:44.129Z,25.40
2018-07-26T00:43:12.451Z,25.40
2018-07-26T00:45:40.824Z,25.30
2018-07-26T00:48:09.114Z,25.10
2018-07-26T00:50:37.393Z,24.90
2018-07-26T00:53:05.734Z,24.80
2018-07-26T00:55:34.021Z,24.70
2018-07-26T00:58:02.318Z,24.60
2018-07-26T01:00:30.600Z,24.70
2018-07-26T01:02:58.876Z,24.70
2018-07-26T01:05:27.151Z,24.60
2018-07-26T01:07:55.416Z,24.60
2018-07-26T01:10:23.720Z,24.60
2018-07-26T01:12:52.033Z,24.50
2018-07-26T01:15:20.327Z,24.60
2018-07-26T01:17:48.637Z,24.50
2018-07-26T01:20:17.025Z,24.40
2018-07-26T01:22:45.325Z,24.20
2018-07-26T01:25:13.680Z,24.20
2018-07-26T01:27:41.993Z,24.40
2018-07-26T01:30:10.321Z,24.50
2018-07-26T01:32:38.652Z,24.30
2018-07-26T01:35:06.950Z,24.50
2018-07-26T01:37:35.273Z,24.80
2018-07-26T01:40:03.680Z,24.70
2018-07-26T01:42:41.872Z,24.40
2018-07-26T01:45:10.201Z,24.30
2018-07-26T01:47:38.545Z,24.10
2018-07-26T01:50:06.876Z,24.00
2018-07-26T01:52:35.220Z,24.00
2018-07-26T01:55:03.552Z,24.00
2018-07-26T01:57:31.909Z,23.90
2018-07-26T02:00:00.193Z,23.90
2018-07-26T02:02:28.502Z,23.70
2018-07-26T02:04:56.799Z,23.80
2018-07-26T02:07:25.078Z,23.80
2018-07-26T02:09:53.418Z,23.80
2018-07-26T02:12:21.836Z,23.70
2018-07-26T02:14:50.149Z,23.70
2018-07-26T02:17:18.458Z,23.70
2018-07-26T02:19:46.776Z,23.70
2018-07-26T02:22:15.138Z,23.70
2018-07-26T02:24:43.544Z,23.60
2018-07-26T02:27:11.883Z,23.70
2018-07-26T02:29:40.197Z,23.60
2018-07-26T02:32:08.515Z,23.60
2018-07-26T02:34:36.818Z,23.50
2018-07-26T02:37:05.173Z,23.70
2018-07-26T02:39:33.482Z,23.70
2018-07-26T02:42:01.769Z,23.60
2018-07-26T02:44:30.126Z,23.60
2018-07-26T02:46:58.428Z,23.60
2018-07-26T02:49:26.746Z,23.50
2018-07-26T02:51:55.066Z,23.50
2018-07-26T02:54:23.341Z,23.50
2018-07-26T02:56:51.687Z,23.50
2018-07-26T02:59:19.998Z,23.50
2018-07-26T03:01:48.287Z,23.60
2018-07-26T03:04:16.871Z,23.50
2018-07-26T03:06:45.162Z,23.50
2018-07-26T03:09:13.477Z,23.50
2018-07-26T03:11:41.781Z,23.60
2018-07-26T03:14:10.165Z,23.50
2018-07-26T03:16:38.510Z,23.50
2018-07-26T03:19:06.809Z,23.50
2018-07-26T03:21:35.066Z,23.50
2018-07-26T03:24:03.429Z,23.50
2018-07-26T03:26:31.754Z,23.40
2018-07-26T03:31:28.107Z,23.30
2018-07-26T03:33:56.416Z,23.20
2018-07-26T03:36:24.750Z,23.30
2018-07-26T03:38:53.020Z,23.20
2018-07-26T03:41:21.372Z,23.20
2018-07-26T03:43:49.677Z,23.20
2018-07-26T03:46:18.043Z,23.50
2018-07-26T03:48:46.361Z,23.40
2018-07-26T03:51:14.665Z,23.30
2018-07-26T03:53:42.993Z,23.00
2018-07-26T03:56:11.307Z,23.00
2018-07-26T03:58:39.596Z,23.10
2018-07-26T04:01:07.925Z,23.00
2018-07-26T04:03:36.268Z,23.10
2018-07-26T04:06:04.669Z,23.00
2018-07-26T04:08:32.973Z,22.90
2018-07-26T04:11:01.288Z,22.90
2018-07-26T04:13:29.651Z,22.80
2018-07-26T04:15:57.976Z,22.70
2018-07-26T04:18:26.268Z,22.70
2018-07-26T04:20:54.613Z,22.80
2018-07-26T04:23:22.911Z,22.80
2018-07-26T04:25:51.305Z,22.80
2018-07-26T04:28:19.589Z,22.90
2018-07-26T04:30:47.905Z,22.80
2018-07-26T04:33:16.196Z,22.90
2018-07-26T04:35:44.487Z,23.00
2018-07-26T04:38:12.801Z,23.00
2018-07-26T04:40:41.079Z,23.00
2018-07-26T04:43:09.461Z,23.10
2018-07-26T04:45:37.840Z,23.10
2018-07-26T04:48:06.308Z,23.10
2018-07-26T04:50:34.672Z,23.10
2018-07-26T04:53:03.018Z,23.10
2018-07-26T04:55:31.468Z,23.30
2018-07-26T04:57:59.844Z,23.30
2018-07-26T05:00:28.164Z,23.40
2018-07-26T05:02:56.505Z,23.40
2018-07-26T05:05:24.877Z,23.50
2018-07-26T05:10:21.845Z,23.70
2018-07-26T05:12:50.632Z,23.70
2018-07-26T05:15:18.993Z,23.70
2018-07-26T05:17:47.300Z,23.80
2018-07-26T05:20:15.701Z,23.90
2018-07-26T05:22:44.049Z,23.90
2018-07-26T05:25:12.393Z,24.10
2018-07-26T05:27:40.747Z,24.10
2018-07-26T05:30:09.031Z,24.20
2018-07-26T05:32:37.426Z,24.40
2018-07-26T05:35:05.757Z,24.30
2018-07-26T05:37:34.132Z,24.50
2018-07-26T05:40:02.408Z,24.60
2018-07-26T05:42:30.880Z,24.80
2018-07-26T05:44:59.177Z,24.90
2018-07-26T05:47:27.489Z,25.00
2018-07-26T05:49:55.777Z,25.10
2018-07-26T05:52:24.141Z,25.30
2018-07-26T05:54:52.482Z,25.50
2018-07-26T05:57:20.834Z,25.60
2018-07-26T05:59:49.122Z,25.80
2018-07-26T06:02:17.437Z,26.00
2018-07-26T06:04:45.725Z,26.20
2018-07-26T06:07:14.025Z,26.10
2018-07-26T06:09:42.382Z,26.30
2018-07-26T06:12:11.046Z,26.50
2018-07-26T06:14:39.333Z,26.50
2018-07-26T06:17:07.717Z,26.70
2018-07-26T06:19:36.041Z,26.60
2018-07-26T06:22:04.382Z,26.60
2018-07-26T06:24:32.705Z,26.90
2018-07-26T06:27:00.985Z,27.20
2018-07-26T06:29:29.325Z,27.10
2018-07-26T06:31:58.191Z,27.00
2018-07-26T06:34:26.588Z,27.10
2018-07-26T06:36:54.907Z,27.20
2018-07-26T06:41:51.217Z,27.30
2018-07-26T06:44:20.118Z,27.60
2018-07-26T06:46:48.461Z,27.70
2018-07-26T06:49:16.807Z,27.80
2018-07-26T06:51:45.172Z,27.90
2018-07-26T06:54:13.560Z,28.00
2018-07-26T06:56:42.027Z,28.20
2018-07-26T06:59:10.569Z,28.30
2018-07-26T07:01:39.022Z,28.30
2018-07-26T07:04:07.714Z,28.50
2018-07-26T07:06:36.146Z,28.60
2018-07-26T07:09:07.876Z,28.80
2018-07-26T07:11:36.248Z,28.80
2018-07-26T07:14:04.836Z,28.80
2018-07-26T07:16:33.137Z,28.80
2018-07-26T07:19:01.527Z,28.80
2018-07-26T07:21:30.044Z,28.90
2018-07-26T07:23:58.455Z,29.00
2018-07-26T07:26:26.774Z,28.90
2018-07-26T07:28:55.085Z,29.10
2018-07-26T07:31:23.476Z,29.30
2018-07-26T07:33:51.902Z,29.50
2018-07-26T07:36:20.277Z,29.60
2018-07-26T07:38:48.589Z,29.60
2018-07-26T07:41:16.885Z,29.70
2018-07-26T07:43:45.739Z,29.90
2018-07-26T07:46:14.088Z,30.00
2018-07-26T07:48:42.461Z,30.10
2018-07-26T07:51:10.805Z,30.10
2018-07-26T07:53:39.120Z,30.30
2018-07-26T07:56:07.506Z,30.20
2018-07-26T07:58:35.822Z,30.30
2018-07-26T08:03:32.191Z,30.70
2018-07-26T08:06:01.549Z,30.70
2018-07-26T08:08:29.882Z,30.80
2018-07-26T08:10:59.990Z,31.00
2018-07-26T08:13:28.483Z,31.10
2018-07-26T08:15:56.897Z,31.20
2018-07-26T08:18:25.277Z,31.10
2018-07-26T08:20:53.637Z,31.00
2018-07-26T08:23:21.954Z,31.20
2018-07-26T08:25:50.408Z,31.40
2018-07-26T08:28:18.754Z,31.60
2018-07-26T08:30:47.113Z,31.80
2018-07-26T08:33:15.476Z,31.80
2018-07-26T08:35:43.786Z,31.80
2018-07-26T08:38:12.133Z,31.90
2018-07-26T08:40:40.475Z,31.90
2018-07-26T08:43:09.933Z,32.10
2018-07-26T08:45:38.328Z,32.30
2018-07-26T08:48:06.785Z,32.50
2018-07-26T08:50:35.085Z,32.50
2018-07-26T08:53:03.479Z,32.80
2018-07-26T08:55:31.794Z,32.50
2018-07-26T08:58:00.149Z,32.40
2018-07-26T09:00:28.621Z,32.60
2018-07-26T09:02:56.916Z,32.60
2018-07-26T09:05:25.296Z,33.20
2018-07-26T09:07:53.604Z,33.40
2018-07-26T09:10:21.998Z,33.50
2018-07-26T09:12:50.323Z,33.50
2018-07-26T09:15:18.646Z,33.60
2018-07-26T09:17:47.108Z,33.70
2018-07-26T09:20:15.589Z,33.90
2018-07-26T09:22:43.969Z,33.90
2018-07-26T09:25:12.305Z,33.70
2018-07-26T09:27:40.696Z,33.90
2018-07-26T09:30:09.894Z,34.00
2018-07-26T09:32:38.412Z,33.90
2018-07-26T09:35:07.055Z,33.70
2018-07-26T09:37:35.428Z,33.90
2018-07-26T09:40:03.909Z,33.90
2018-07-26T09:42:32.399Z,34.20
2018-07-26T09:45:00.669Z,34.40
2018-07-26T09:47:29.096Z,34.60
2018-07-26T09:49:57.497Z,34.50
2018-07-26T09:52:25.880Z,34.60
2018-07-26T09:54:54.233Z,34.30
2018-07-26T09:57:22.546Z,34.20
2018-07-26T09:59:50.877Z,34.10
2018-07-26T10:02:19.351Z,34.10
2018-07-26T10:04:47.774Z,34.30
2018-07-26T10:07:16.086Z,34.50
2018-07-26T10:09:44.564Z,34.80
2018-07-26T10:12:12.880Z,34.90
2018-07-26T10:14:41.158Z,35.30
2018-07-26T10:17:09.572Z,35.00
2018-07-26T10:19:37.948Z,35.20
2018-07-26T10:22:06.377Z,35.10
2018-07-26T10:24:35.243Z,35.30
2018-07-26T10:27:03.506Z,35.60
2018-07-26T10:29:31.847Z,35.40
2018-07-26T10:32:00.201Z,35.30
2018-07-26T10:34:28.541Z,35.30
2018-07-26T10:36:56.869Z,35.20
2018-07-26T10:39:25.330Z,35.50
2018-07-26T10:41:54.460Z,35.70
2018-07-26T10:44:22.842Z,36.10
2018-07-26T10:46:53.236Z,36.10
2018-07-26T10:49:21.581Z,36.00
2018-07-26T10:51:49.937Z,35.80
2018-07-26T10:54:18.340Z,36.10
2018-07-26T10:56:46.720Z,36.30
2018-07-26T10:59:15.019Z,36.20
2018-07-26T11:01:43.375Z,36.30
2018-07-26T11:04:11.699Z,36.30
2018-07-26T11:06:39.977Z,36.40
2018-07-26T11:09:09.353Z,36.40
2018-07-26T11:11:38.408Z,36.40
2018-07-26T11:14:07.402Z,36.40
2018-07-26T11:16:35.720Z,36.40
2018-07-26T11:19:04.209Z,36.10
2018-07-26T11:21:32.484Z,36.10
2018-07-26T11:24:00.793Z,36.40
2018-07-26T11:26:29.181Z,36.60
2018-07-26T11:28:57.488Z,36.90
2018-07-26T11:31:25.859Z,36.10
2018-07-26T11:33:54.155Z,36.20
2018-07-26T11:36:22.508Z,36.50
2018-07-26T11:38:50.868Z,36.70
2018-07-26T11:41:19.295Z,36.50
2018-07-26T11:43:47.782Z,37.10
2018-07-26T11:46:16.138Z,36.70
2018-07-26T11:48:44.536Z,37.10
2018-07-26T11:51:12.817Z,37.20
2018-07-26T11:53:41.131Z,36.80
2018-07-26T11:56:09.467Z,36.20
2018-07-26T11:58:37.784Z,36.30
2018-07-26T12:01:06.068Z,36.30
2018-07-26T12:03:34.448Z,36.40
2018-07-26T12:06:02.766Z,36.60
2018-07-26T12:08:31.088Z,36.80
2018-07-26T12:10:59.500Z,37.00
2018-07-26T12:13:27.799Z,37.20
2018-07-26T12:15:56.994Z,37.50
2018-07-26T12:18:25.313Z,37.40
2018-07-26T12:20:53.669Z,37.00
2018-07-26T12:23:22.012Z,36.80
2018-07-26T12:25:50.313Z,37.40
2018-07-26T12:28:18.608Z,37.80
2018-07-26T12:30:46.980Z,38.40
2018-07-26T12:33:16.375Z,38.90
2018-07-26T12:35:45.206Z,38.60
2018-07-26T12:38:13.796Z,38.40
2018-07-26T12:40:48.327Z,38.50
2018-07-26T12:43:19.979Z,37.90
2018-07-26T12:45:50.354Z,38.40
2018-07-26T12:48:19.416Z,38.70
2018-07-26T12:50:49.787Z,38.60
2018-07-26T12:53:18.265Z,38.60
2018-07-26T12:55:47.199Z,39.20
2018-07-26T12:58:15.538Z,39.60
2018-07-26T13:00:44.010Z,39.60
2018-07-26T13:03:12.433Z,39.60
2018-07-26T13:05:40.786Z,39.30
2018-07-26T13:08:09.129Z,39.40
2018-07-26T13:10:37.470Z,38.70
2018-07-26T13:13:05.766Z,38.50
2018-07-26T13:15:34.106Z,38.70
2018-07-26T13:18:02.459Z,38.60
2018-07-26T13:20:30.821Z,38.10
2018-07-26T13:22:59.113Z,38.30
2018-07-26T13:25:27.437Z,38.40
2018-07-26T13:27:55.729Z,38.60
2018-07-26T13:30:24.081Z,38.30
2018-07-26T13:32:52.384Z,38.60
2018-07-26T13:35:20.730Z,39.00
2018-07-26T13:37:49.141Z,38.90
2018-07-26T13:40:17.529Z,39.40
2018-07-26T13:42:45.830Z,39.30
2018-07-26T13:45:14.213Z,39.60
2018-07-26T13:47:42.935Z,40.20
2018-07-26T13:50:11.522Z,40.40
2018-07-26T13:52:39.866Z,41.20
2018-07-26T13:55:08.686Z,41.30
2018-07-26T13:57:37.404Z,40.90
2018-07-26T14:00:06.206Z,40.80
2018-07-26T14:02:34.561Z,40.30
2018-07-26T14:05:02.865Z,39.80
2018-07-26T14:07:31.237Z,39.40
2018-07-26T14:09:59.593Z,39.00
2018-07-26T14:12:27.988Z,39.20
2018-07-26T14:14:56.455Z,38.80
2018-07-26T14:17:24.832Z,38.80
2018-07-26T14:19:53.297Z,39.00
2018-07-26T14:22:21.722Z,38.90
2018-07-26T14:24:50.501Z,38.50
2018-07-26T14:27:18.962Z,38.20
2018-07-26T14:29:47.701Z,37.70
2018-07-26T14:32:16.693Z,37.70
2018-07-26T14:34:45.137Z,37.70
2018-07-26T14:37:13.593Z,37.80
2018-07-26T14:39:42.407Z,38.60
2018-07-26T14:42:10.937Z,38.90
2018-07-26T14:44:39.461Z,38.90
2018-07-26T14:47:08.062Z,38.80
2018-07-26T14:49:36.897Z,38.40
2018-07-26T14:52:07.161Z,38.30
2018-07-26T14:54:35.757Z,38.50
2018-07-26T14:57:04.131Z,38.50
2018-07-26T14:59:34.052Z,38.70
2018-07-26T15:02:02.459Z,38.60
2018-07-26T15:04:30.862Z,38.70
2018-07-26T15:07:01.590Z,38.90
2018-07-26T15:09:30.859Z,38.80
2018-07-26T15:12:00.149Z,38.70
2018-07-26T15:14:28.737Z,38.80
2018-07-26T15:16:57.518Z,39.40
2018-07-26T15:19:26.518Z,39.40
2018-07-26T15:21:54.931Z,40.10
2018-07-26T15:24:23.259Z,40.60
2018-07-26T15:26:51.569Z,40.50
2018-07-26T15:29:20.037Z,39.80
2018-07-26T15:31:48.381Z,40.00
2018-07-26T15:34:16.734Z,39.70
2018-07-26T15:36:45.748Z,39.20
2018-07-26T15:39:14.058Z,38.60
2018-07-26T15:42:06.193Z,38.00
2018-07-26T15:44:34.674Z,37.30
2018-07-26T15:47:03.557Z,36.60
2018-07-26T15:49:31.833Z,36.60
2018-07-26T15:52:00.230Z,36.40
2018-07-26T15:54:28.582Z,36.40
2018-07-26T15:56:56.917Z,36.60
2018-07-26T15:59:25.287Z,37.00
2018-07-26T16:01:53.630Z,37.80
2018-07-26T16:04:21.968Z,38.00
2018-07-26T16:06:50.455Z,37.90
2018-07-26T16:09:19.429Z,38.30
2018-07-26T16:11:48.064Z,37.20
2018-07-26T16:14:16.821Z,36.70
2018-07-26T16:16:45.265Z,36.20
2018-07-26T16:19:13.626Z,36.20
2018-07-26T16:21:41.968Z,36.00
2018-07-26T16:24:10.409Z,36.00
2018-07-26T16:26:38.795Z,36.00
2018-07-26T16:29:07.302Z,35.90
2018-07-26T16:31:35.622Z,35.90
2018-07-26T16:34:04.044Z,35.90
2018-07-26T16:36:32.297Z,35.80
2018-07-26T16:39:00.715Z,35.80
2018-07-26T16:41:29.099Z,35.80
2018-07-26T16:43:57.515Z,35.70
2018-07-26T16:46:25.852Z,35.70
2018-07-26T16:48:54.201Z,35.80
2018-07-26T16:51:22.569Z,35.90
2018-07-26T16:53:50.953Z,35.80
2018-07-26T16:56:19.334Z,35.80
2018-07-26T16:58:47.753Z,35.70
2018-07-26T17:01:16.061Z,35.60
2018-07-26T17:03:44.384Z,35.50
2018-07-26T17:06:12.771Z,35.50
2018-07-26T17:08:41.113Z,35.70
2018-07-26T17:11:09.593Z,35.50
2018-07-26T17:13:37.995Z,35.60
2018-07-26T17:16:06.383Z,35.30
2018-07-26T17:18:34.765Z,35.10
2018-07-26T17:23:31.490Z,35.00
2018-07-26T17:25:59.901Z,34.90
2018-07-26T17:28:29.057Z,34.90
2018-07-26T17:31:03.459Z,34.80
2018-07-26T17:33:37.792Z,35.10
2018-07-26T17:36:11.096Z,35.10
2018-07-26T17:38:42.739Z,35.10
2018-07-26T17:41:14.079Z,35.10
2018-07-26T17:43:44.983Z,34.90
2018-07-26T17:46:15.951Z,34.90
2018-07-26T17:48:51.200Z,34.80
2018-07-26T17:51:29.821Z,34.80
2018-07-26T17:54:00.658Z,34.40
2018-07-26T17:59:08.103Z,34.40
2018-07-26T18:01:38.074Z,34.70
2018-07-26T18:04:13.386Z,35.00
2018-07-26T18:06:42.725Z,34.90
2018-07-26T18:09:11.361Z,34.40
2018-07-26T18:11:40.970Z,34.20
2018-07-26T18:14:09.379Z,34.10
2018-07-26T18:16:38.414Z,34.10
2018-07-26T18:19:06.785Z,34.30
2018-07-26T18:21:35.201Z,34.30
2018-07-26T18:24:03.721Z,34.30
2018-07-26T18:26:32.230Z,34.20
2018-07-26T18:29:00.683Z,34.20
2018-07-26T18:31:29.164Z,34.30
2018-07-26T18:33:57.582Z,34.30
2018-07-26T18:36:26.081Z,34.40
2018-07-26T18:39:17.321Z,34.50
2018-07-26T18:41:45.974Z,34.40
2018-07-26T18:44:19.978Z,34.20
2018-07-26T18:51:44.655Z,33.70
2018-07-26T18:54:13.293Z,33.50
2018-07-26T18:56:41.615Z,33.50
2018-07-26T18:59:09.925Z,33.50
2018-07-26T19:01:39.041Z,33.40
2018-07-26T19:11:32.032Z,32.80
2018-07-26T19:14:00.333Z,32.70
2018-07-26T19:16:28.705Z,32.50
2018-07-26T19:18:57.032Z,32.30
2018-07-26T19:21:25.363Z,32.10
2018-07-26T19:23:53.696Z,32.00
2018-07-26T19:26:22.126Z,31.90
2018-07-26T19:28:50.406Z,31.70
2018-07-26T19:31:18.735Z,31.60
2018-07-26T19:33:47.196Z,31.50
2018-07-26T19:36:15.605Z,31.60
2018-07-26T19:38:44.125Z,31.40
2018-07-26T19:41:12.500Z,31.20
2018-07-26T19:43:40.983Z,31.00
2018-07-26T19:46:09.400Z,30.70
2018-07-26T19:48:37.797Z,30.50
2018-07-26T19:51:06.197Z,30.30
2018-07-26T19:53:34.613Z,30.40
2018-07-26T19:56:03.052Z,30.40
2018-07-26T19:58:31.520Z,30.30
2018-07-26T20:00:59.975Z,30.20
2018-07-26T20:03:28.444Z,30.20
2018-07-26T20:05:56.897Z,30.20
2018-07-26T20:08:26.289Z,30.10
2018-07-26T20:10:54.785Z,30.00
2018-07-26T20:13:23.236Z,29.90
2018-07-26T20:15:51.773Z,29.90
2018-07-26T20:18:20.147Z,29.90
2018-07-26T20:20:48.505Z,29.70
2018-07-26T20:23:16.954Z,29.60
2018-07-26T20:25:46.614Z,29.50
2018-07-26T20:28:15.633Z,29.50
2018-07-26T20:30:44.070Z,29.40
2018-07-26T20:35:40.594Z,29.20
2018-07-26T20:38:08.969Z,29.10
2018-07-26T20:40:37.349Z,29.00
2018-07-26T20:43:05.937Z,29.00
2018-07-26T20:45:34.321Z,28.90
2018-07-26T20:48:02.713Z,28.80
2018-07-26T20:53:00.386Z,28.70
2018-07-26T20:55:28.780Z,28.70
2018-07-26T20:57:57.138Z,28.60
2018-07-26T21:00:25.569Z,28.60
2018-07-26T21:02:53.942Z,28.60
2018-07-26T21:05:22.286Z,28.50
2018-07-26T21:07:50.556Z,28.60
2018-07-26T21:10:18.914Z,28.50
2018-07-26T21:12:47.212Z,28.40
2018-07-26T21:15:15.579Z,28.30
2018-07-26T21:17:43.925Z,28.30
2018-07-26T21:20:12.360Z,28.20
2018-07-26T21:22:40.816Z,28.10
2018-07-26T21:25:09.117Z,28.00
2018-07-26T21:27:37.446Z,27.90
2018-07-26T21:30:07.194Z,27.80
2018-07-26T21:32:35.709Z,27.70
2018-07-26T21:35:04.405Z,27.70
2018-07-26T21:37:32.794Z,27.60
2018-07-26T21:40:01.116Z,27.50
2018-07-26T21:42:29.735Z,27.30
2018-07-26T21:44:58.246Z,27.30
2018-07-26T21:47:27.015Z,27.40
2018-07-26T21:49:55.376Z,27.50
2018-07-26T21:52:23.750Z,27.30
2018-07-26T21:54:52.161Z,27.30
2018-07-26T21:57:20.541Z,27.30
2018-07-26T21:59:48.851Z,27.30
2018-07-26T22:02:17.319Z,27.20
2018-07-26T22:04:45.565Z,27.10
2018-07-26T22:07:13.880Z,27.10
2018-07-26T22:09:42.214Z,27.00
2018-07-26T22:12:10.584Z,27.00
2018-07-26T22:14:39.088Z,26.90
2018-07-26T22:17:07.433Z,26.90
2018-07-26T22:19:35.775Z,26.80
2018-07-26T22:22:04.159Z,26.70
2018-07-26T22:24:32.481Z,26.60
2018-07-26T22:27:00.887Z,26.50
2018-07-26T22:29:29.294Z,26.50
2018-07-26T22:31:57.589Z,26.40
2018-07-26T22:34:25.932Z,26.50
2018-07-26T22:36:54.369Z,26.40
2018-07-26T22:39:22.700Z,26.50
2018-07-26T22:41:51.023Z,26.40
2018-07-26T22:44:19.871Z,26.30
2018-07-26T22:46:48.559Z,26.30
2018-07-26T22:49:17.042Z,26.40
2018-07-26T22:51:45.630Z,26.40
2018-07-26T22:54:14.207Z,26.20
2018-07-26T22:56:42.540Z,26.20
2018-07-26T22:59:10.980Z,26.20
2018-07-26T23:01:39.430Z,26.00
2018-07-26T23:04:07.776Z,25.90
2018-07-26T23:06:36.069Z,25.90
2018-07-26T23:09:06.331Z,25.90
2018-07-26T23:11:34.702Z,25.90
2018-07-26T23:14:03.161Z,26.00
2018-07-26T23:16:31.450Z,25.90
2018-07-26T23:18:59.745Z,25.90
2018-07-26T23:21:28.049Z,25.80
2018-07-26T23:23:56.361Z,25.70
2018-07-26T23:26:24.668Z,25.50
2018-07-26T23:28:52.997Z,25.50
2018-07-26T23:31:21.334Z,25.50
2018-07-26T23:33:49.651Z,25.50
2018-07-26T23:36:17.993Z,25.40
2018-07-26T23:38:46.331Z,25.40
2018-07-26T23:41:14.661Z,25.40
2018-07-26T23:43:43.012Z,25.40
2018-07-26T23:46:11.334Z,25.40
2018-07-26T23:48:39.637Z,25.30
2018-07-26T23:51:07.973Z,25.30
2018-07-26T23:53:36.281Z,25.20
2018-07-26T23:56:04.601Z,25.20
2018-07-26T23:58:32.896Z,25.10
